This is the latest recevied weather packets stored in our database for station/object VE2XOX. If no packets are shown the sender has not sent any weather packets the latest 10 day(s).
| Time | Temp. | Humidity | Pressure | Rain* | Wind** | Luminosity | Snow |
|---|---|---|---|---|---|---|---|
| 1778016930 | 15.56° C | 83% | 997.9 hPa | 5.08 mm | - | - | - |
| 1778016616 | 16.11° C | 83% | 998 hPa | 5.08 mm | - | - | - |
| 1778016328 | 16.11° C | 83% | 998.2 hPa | 5.08 mm | - | - | - |
| 1778016013 | 16.67° C | 82% | 997.8 hPa | 5.08 mm | - | - | - |
| 1778015717 | 17.22° C | 79% | 997.9 hPa | 5.08 mm | - | - | - |
| 1778015428 | 18.33° C | 74% | 997.5 hPa | 2.03 mm | - | - | - |
| 1778015116 | 19.44° C | 70% | 997.2 hPa | 1.02 mm | - | - | - |
| 1778014819 | 20.56° C | 64% | 996.8 hPa | 0 mm | - | - | - |
| 1778014531 | 20.56° C | 64% | 996 hPa | 0 mm | - | - | - |
| 1778014217 | 20.56° C | 64% | 996 hPa | 0 mm | - | - | - |
| 1778013921 | 20.56° C | 65% | 996.3 hPa | 0 mm | - | - | - |
| 1778013632 | 21.11° C | 66% | 996.2 hPa | 0 mm | - | - | - |
| 1778013317 | 20.56° C | 68% | 996.2 hPa | 0 mm | - | - | - |
| 1778013016 | 20° C | 69% | 996.2 hPa | 0 mm | - | - | - |
| 1778012726 | 20° C | 70% | 996.5 hPa | 0 mm | - | - | - |
| 1778012431 | 20° C | 70% | 996.4 hPa | 0 mm | - | - | - |
| 1778012114 | 20° C | 71% | 996.4 hPa | 0 mm | - | - | - |
| 1778011824 | 19.44° C | 74% | 996.5 hPa | 0 mm | - | - | - |
| 1778011527 | 19.44° C | 75% | 996.4 hPa | 0 mm | - | - | - |
| 1778011212 | 19.44° C | 77% | 996.5 hPa | 0 mm | - | - | - |
| 1778010924 | 18.89° C | 78% | 996.7 hPa | 0 mm | - | - | - |
| 1778010628 | 18.89° C | 78% | 996.9 hPa | 0 mm | - | - | - |
| 1778010314 | 18.89° C | 78% | 997.1 hPa | 0 mm | - | - | - |
| 1778010026 | 19.44° C | 78% | 997.1 hPa | 0 mm | - | - | - |
| 1778009713 | 18.89° C | 79% | 997.1 hPa | 0 mm | - | - | - |
* Rain latest hour (hover to see other rain measurements)
** Current wind speed in m/s (hover to see current wind gust speed)